Hawi, Hawaii
Current Conditions -  °F | °C
As of 3:56 AM on Monday 26 Jan 2015 (Local Time) from PHSF Reporting Station
Clear Clear  
Wind Chill: 44°   Ceiling: Unl
Heat Index: 47°   Visibility: 10mi
Dew Point: 43°   Wind: 7mph
Humidity: 84%   Direction: 120°ESE
Pressure: 30.19"   Gusts: NA
Location:  20.24°N, 155.82°W
Report Text: PHSF 261356Z AUTO 12006KT 10SM CLR 09/06 A3019 RMK AO2 SLP117 T00850059 $
Loading
Personal Weather Stations






























Interactive Weather Map New forecast layout! Learn more

10-Day Weather Forecast

Advertisements
Track Severe Weather on mobile